Time;durP1;ratioP1;P1;durP2;ratioP2;P2;SDS_P1;SDS_P2;PMS_P1;PMS_P2;Temp;Humidity;BMP_temperature;BMP_pressure;BME280_temperature;BME280_humidity;BME280_pressure;Samples;Min_cycle;Max_cycle;Signal;HPM_P1;HPM_P2
2023/09/09 00:00:09;;;;;;;11.90;10.83;;;17.00;99.90;;;;;;2079915;28;20197;-83
2023/09/09 00:01:10;;;;;;;12.37;11.23;;;16.90;99.90;;;;;;2062149;28;20455;-81
2023/09/09 00:02:11;;;;;;;11.63;10.43;;;16.90;99.90;;;;;;2063693;28;20460;-81
2023/09/09 00:03:12;;;;;;;12.03;10.93;;;16.90;99.90;;;;;;2064195;28;20256;-82
2023/09/09 00:04:13;;;;;;;11.43;10.43;;;16.90;99.90;;;;;;2056020;28;20211;-82
2023/09/09 00:05:14;;;;;;;11.13;9.90;;;17.00;99.90;;;;;;2063116;28;20507;-82
2023/09/09 00:06:15;;;;;;;11.20;10.10;;;17.00;99.90;;;;;;2061752;28;20421;-82
2023/09/09 00:07:15;;;;;;;12.53;11.43;;;16.90;99.90;;;;;;2061761;28;20647;-82
2023/09/09 00:08:19;;;;;;;11.43;10.33;;;16.90;99.90;;;;;;2061537;28;20186;-81
2023/09/09 00:09:19;;;;;;;11.60;10.60;;;16.90;99.90;;;;;;2063005;28;20284;-82
2023/09/09 00:10:20;;;;;;;11.00;9.83;;;16.90;99.90;;;;;;2064466;28;20931;-83
2023/09/09 00:11:21;;;;;;;10.93;9.87;;;16.80;99.90;;;;;;2061445;28;20241;-82
2023/09/09 00:12:22;;;;;;;11.43;10.40;;;16.80;99.90;;;;;;2060998;28;20532;-81
2023/09/09 00:13:22;;;;;;;11.77;10.57;;;16.80;99.90;;;;;;2071648;28;20478;-81
2023/09/09 00:14:24;;;;;;;11.97;10.87;;;16.80;99.90;;;;;;2070429;28;20238;-81
2023/09/09 00:15:25;;;;;;;12.13;11.00;;;16.80;99.90;;;;;;2065050;28;20883;-81
2023/09/09 00:16:32;;;;;;;11.33;10.23;;;16.80;99.90;;;;;;2068240;28;20534;-81
2023/09/09 00:17:32;;;;;;;11.23;10.23;;;16.80;99.90;;;;;;2066604;28;20539;-81
2023/09/09 00:18:33;;;;;;;11.70;10.60;;;16.60;99.90;;;;;;2063381;28;20546;-81
2023/09/09 00:19:34;;;;;;;11.40;10.40;;;16.60;99.90;;;;;;2072111;28;20229;-81
2023/09/09 00:20:38;;;;;;;11.63;10.60;;;16.60;99.90;;;;;;2070315;28;20658;-81
2023/09/09 00:21:39;;;;;;;11.43;10.43;;;16.60;99.90;;;;;;2072873;28;20225;-81
2023/09/09 00:22:40;;;;;;;10.80;9.70;;;16.60;99.90;;;;;;2062181;28;20463;-82
2023/09/09 00:23:41;;;;;;;10.93;9.93;;;16.50;99.90;;;;;;2052488;28;20246;-81
2023/09/09 00:24:41;;;;;;;11.10;10.10;;;16.50;99.90;;;;;;2064468;28;20380;-82
2023/09/09 00:25:43;;;;;;;12.43;11.13;;;16.60;99.90;;;;;;2069732;28;20715;-83
2023/09/09 00:26:43;;;;;;;11.53;10.43;;;16.60;99.90;;;;;;2058419;28;20337;-83
2023/09/09 00:27:44;;;;;;;11.07;10.17;;;16.60;99.90;;;;;;2046104;28;20466;-82
2023/09/09 00:28:45;;;;;;;11.60;10.37;;;16.60;99.90;;;;;;2056922;28;20223;-81
2023/09/09 00:29:45;;;;;;;11.87;10.67;;;16.60;99.90;;;;;;2064837;28;20226;-82
2023/09/09 00:30:46;;;;;;;12.67;10.40;;;16.60;99.90;;;;;;2070930;28;20749;-83
2023/09/09 00:31:49;;;;;;;10.93;9.93;;;16.60;99.90;;;;;;2072318;28;20232;-84
2023/09/09 00:32:50;;;;;;;11.47;10.37;;;16.60;99.90;;;;;;2064930;28;20306;-83
2023/09/09 00:33:52;;;;;;;11.77;10.57;;;16.60;99.90;;;;;;2060253;28;20472;-83
2023/09/09 00:34:53;;;;;;;11.47;10.47;;;16.60;99.90;;;;;;2065957;28;20232;-80
2023/09/09 00:35:53;;;;;;;11.53;10.43;;;16.60;99.90;;;;;;2081308;28;20560;-84
2023/09/09 00:36:54;;;;;;;11.23;10.13;;;16.60;99.90;;;;;;2078826;28;20225;-83
2023/09/09 00:37:55;;;;;;;11.20;10.10;;;16.60;99.90;;;;;;2070337;28;20257;-82
2023/09/09 00:38:56;;;;;;;10.97;9.87;;;16.60;99.90;;;;;;2055963;28;20233;-82
2023/09/09 00:39:56;;;;;;;12.20;11.10;;;16.50;99.90;;;;;;2055449;28;20214;-83
2023/09/09 00:41:20;;;;;;;12.17;11.00;;;16.50;99.90;;;;;;2048715;28;20251;-83
2023/09/09 00:42:21;;;;;;;12.00;10.80;;;16.50;99.90;;;;;;2053257;28;20222;-83
2023/09/09 00:43:22;;;;;;;13.30;11.90;;;16.50;99.90;;;;;;2065988;28;21077;-83
2023/09/09 00:44:22;;;;;;;12.30;11.20;;;16.50;99.90;;;;;;2074041;28;20261;-82
2023/09/09 00:45:27;;;;;;;12.07;10.63;;;16.50;99.90;;;;;;2074540;28;20621;-82
2023/09/09 00:46:28;;;;;;;11.13;10.13;;;16.60;99.90;;;;;;2073681;28;20274;-82
2023/09/09 00:47:29;;;;;;;12.63;11.20;;;16.50;99.90;;;;;;2065281;28;20551;-83
2023/09/09 00:48:30;;;;;;;12.53;11.33;;;16.50;99.90;;;;;;2064415;28;20361;-83
2023/09/09 00:49:31;;;;;;;12.83;11.53;;;16.50;99.90;;;;;;2067855;28;20522;-83
2023/09/09 00:50:32;;;;;;;13.23;12.03;;;16.50;99.90;;;;;;2064073;28;20222;-84
2023/09/09 00:51:37;;;;;;;12.43;11.33;;;16.50;99.90;;;;;;2065213;28;21224;-83
2023/09/09 00:52:39;;;;;;;12.53;11.23;;;16.50;99.90;;;;;;2053868;28;20248;-83
2023/09/09 00:53:41;;;;;;;13.13;11.83;;;16.50;99.90;;;;;;2071622;28;20527;-83
2023/09/09 00:54:42;;;;;;;12.33;11.23;;;16.50;99.90;;;;;;2067172;28;20501;-82
2023/09/09 00:55:43;;;;;;;13.27;11.97;;;16.50;99.90;;;;;;2080070;28;21196;-84
2023/09/09 00:56:44;;;;;;;11.63;10.63;;;16.50;99.90;;;;;;2071927;28;20221;-83
2023/09/09 00:57:45;;;;;;;12.00;10.70;;;16.50;99.90;;;;;;2057797;28;20468;-83
2023/09/09 00:58:46;;;;;;;12.47;11.37;;;16.50;99.90;;;;;;2050462;28;20476;-83
2023/09/09 00:59:47;;;;;;;13.23;11.90;;;16.50;99.90;;;;;;2066135;28;20221;-82
2023/09/09 01:00:47;;;;;;;11.93;10.83;;;16.40;99.90;;;;;;2074041;28;20712;-82
2023/09/09 01:01:48;;;;;;;11.70;10.60;;;16.40;99.90;;;;;;2071705;28;20471;-82
2023/09/09 01:02:49;;;;;;;11.67;10.50;;;16.40;99.90;;;;;;2073174;28;20738;-82
2023/09/09 01:03:53;;;;;;;13.63;12.30;;;16.40;99.90;;;;;;2064976;28;20256;-83
2023/09/09 01:04:53;;;;;;;12.00;10.80;;;16.40;99.90;;;;;;2058528;28;20222;-83
2023/09/09 01:05:56;;;;;;;13.60;12.20;;;16.40;99.90;;;;;;2067114;28;20469;-82
2023/09/09 01:07:00;;;;;;;12.43;11.33;;;16.40;99.90;;;;;;2065357;28;20673;-83
2023/09/09 01:08:01;;;;;;;13.37;12.10;;;16.40;99.90;;;;;;2063250;28;20821;-82
2023/09/09 01:09:06;;;;;;;12.93;11.73;;;16.40;99.90;;;;;;2064930;28;20462;-83
2023/09/09 01:10:07;;;;;;;12.40;11.23;;;16.40;99.90;;;;;;2056861;28;20233;-82
2023/09/09 01:11:08;;;;;;;12.27;11.17;;;16.40;99.90;;;;;;2052789;28;20953;-81
2023/09/09 01:12:11;;;;;;;12.43;11.37;;;16.40;99.90;;;;;;2062194;28;20197;-82
2023/09/09 01:13:12;;;;;;;12.00;10.77;;;16.40;99.90;;;;;;2062165;28;20186;-83
2023/09/09 01:14:13;;;;;;;11.70;10.70;;;16.30;99.90;;;;;;2062083;28;21281;-83
2023/09/09 01:15:13;;;;;;;12.50;11.20;;;16.40;99.90;;;;;;2058329;28;20260;-81
2023/09/09 01:16:15;;;;;;;12.43;11.20;;;16.40;99.90;;;;;;2064782;28;20194;-83
2023/09/09 01:17:17;;;;;;;12.40;11.20;;;16.40;99.90;;;;;;2064612;28;20190;-81
2023/09/09 01:18:18;;;;;;;13.03;11.70;;;16.30;99.90;;;;;;2064697;28;20865;-83
2023/09/09 01:19:23;;;;;;;12.10;10.90;;;16.30;99.90;;;;;;2065138;28;20439;-82
2023/09/09 01:20:25;;;;;;;11.70;10.57;;;16.30;99.90;;;;;;2067792;28;20237;-82
2023/09/09 01:21:29;;;;;;;13.13;11.83;;;16.30;99.90;;;;;;2063000;28;20504;-80
2023/09/09 01:22:35;;;;;;;12.60;11.30;;;16.30;99.90;;;;;;2068934;28;20534;-80
2023/09/09 01:23:36;;;;;;;13.33;12.07;;;16.30;99.90;;;;;;2079953;28;20483;-80
2023/09/09 01:24:40;;;;;;;13.00;11.80;;;16.20;99.90;;;;;;2064552;28;20457;-80
2023/09/09 01:25:40;;;;;;;12.87;11.67;;;16.20;99.90;;;;;;2054520;28;20461;-80
2023/09/09 01:26:45;;;;;;;12.90;11.67;;;16.20;99.90;;;;;;2047659;28;20474;-82
2023/09/09 01:27:45;;;;;;;11.87;10.77;;;16.20;99.90;;;;;;2065515;28;20250;-81
2023/09/09 01:28:46;;;;;;;11.80;10.77;;;16.30;99.90;;;;;;2073635;28;20473;-81
2023/09/09 01:29:47;;;;;;;13.03;11.73;;;16.20;99.90;;;;;;2065108;28;20229;-81
2023/09/09 01:30:51;;;;;;;12.30;11.00;;;16.30;99.90;;;;;;2073062;28;20225;-81
2023/09/09 01:31:52;;;;;;;12.07;10.97;;;16.30;99.90;;;;;;2073777;28;20225;-81
2023/09/09 01:32:52;;;;;;;12.10;11.10;;;16.30;99.90;;;;;;2069088;28;20571;-81
2023/09/09 01:33:56;;;;;;;12.40;11.30;;;16.30;99.90;;;;;;2070720;28;20244;-81
2023/09/09 01:34:57;;;;;;;12.30;11.03;;;16.20;99.90;;;;;;2062867;28;20233;-81
2023/09/09 01:35:57;;;;;;;11.97;10.87;;;16.20;99.90;;;;;;2064925;28;20475;-80
2023/09/09 01:36:58;;;;;;;12.73;11.53;;;16.20;99.90;;;;;;2064905;28;20264;-81
2023/09/09 01:37:59;;;;;;;11.87;10.83;;;16.20;99.90;;;;;;2064390;28;20225;-80
2023/09/09 01:39:00;;;;;;;12.67;11.37;;;16.20;99.90;;;;;;2064860;28;20245;-81
2023/09/09 01:40:05;;;;;;;12.73;11.53;;;16.20;99.90;;;;;;2055141;28;20644;-81
2023/09/09 01:41:06;;;;;;;11.63;10.63;;;16.20;99.90;;;;;;2063259;28;20253;-81
2023/09/09 01:42:07;;;;;;;12.80;11.60;;;16.20;99.90;;;;;;2061393;28;20440;-81
2023/09/09 01:43:08;;;;;;;11.87;10.77;;;16.20;99.90;;;;;;2061128;28;20190;-80
2023/09/09 01:44:09;;;;;;;12.20;11.10;;;16.20;99.90;;;;;;2064872;28;20214;-81
2023/09/09 01:45:10;;;;;;;12.20;11.00;;;16.10;99.90;;;;;;2071151;28;20713;-81
2023/09/09 01:46:11;;;;;;;11.53;10.37;;;16.10;99.90;;;;;;2065909;28;20483;-81
2023/09/09 01:47:13;;;;;;;12.97;11.77;;;16.10;99.90;;;;;;2052676;28;20238;-81
2023/09/09 01:48:14;;;;;;;13.10;11.90;;;16.10;99.90;;;;;;2049302;28;20195;-80
2023/09/09 01:49:15;;;;;;;13.57;12.27;;;16.10;99.90;;;;;;2057333;28;20495;-81
2023/09/09 01:50:15;;;;;;;13.97;12.57;;;16.10;99.90;;;;;;2072870;28;20215;-82
2023/09/09 01:51:16;;;;;;;12.77;11.47;;;16.10;99.90;;;;;;2061632;28;20175;-81
2023/09/09 01:52:17;;;;;;;13.50;12.30;;;16.10;99.90;;;;;;2056904;28;20186;-81
2023/09/09 01:53:18;;;;;;;13.47;12.17;;;16.10;99.90;;;;;;2056646;28;20187;-81
2023/09/09 01:54:18;;;;;;;12.63;11.43;;;16.10;99.90;;;;;;2055638;28;20237;-81
2023/09/09 01:55:19;;;;;;;13.33;12.13;;;16.10;99.90;;;;;;2071477;28;20277;-81
2023/09/09 01:56:20;;;;;;;13.50;12.10;;;16.10;99.90;;;;;;2070320;28;20213;-80
2023/09/09 01:57:22;;;;;;;12.43;11.33;;;16.10;99.90;;;;;;2064492;28;20186;-81
2023/09/09 01:58:22;;;;;;;13.50;11.93;;;16.10;99.90;;;;;;2064192;28;20218;-81
2023/09/09 01:59:23;;;;;;;12.97;11.67;;;16.10;99.90;;;;;;2063275;28;21325;-81
2023/09/09 02:00:24;;;;;;;12.93;11.73;;;16.10;99.90;;;;;;2054702;28;20227;-80
2023/09/09 02:01:25;;;;;;;13.30;12.00;;;16.00;99.90;;;;;;2053051;28;20231;-81
2023/09/09 02:02:26;;;;;;;12.60;11.30;;;16.00;99.90;;;;;;2057062;28;20306;-81
2023/09/09 02:03:26;;;;;;;13.20;11.90;;;15.90;99.90;;;;;;2064557;28;20221;-82
2023/09/09 02:04:27;;;;;;;13.03;11.73;;;16.00;99.90;;;;;;2063305;28;20226;-82
2023/09/09 02:05:28;;;;;;;13.03;11.73;;;16.00;99.90;;;;;;2064086;28;20230;-81
2023/09/09 02:06:29;;;;;;;13.17;11.90;;;16.00;99.90;;;;;;2070446;28;20320;-82
2023/09/09 02:07:29;;;;;;;13.47;12.27;;;16.00;99.90;;;;;;2072250;28;20475;-82
2023/09/09 02:08:30;;;;;;;13.17;11.83;;;16.00;99.90;;;;;;2054767;28;20227;-81
2023/09/09 02:09:31;;;;;;;13.57;12.30;;;16.00;99.90;;;;;;2057139;28;20230;-82
2023/09/09 02:10:31;;;;;;;12.70;11.40;;;16.00;99.90;;;;;;2054111;28;20231;-83
2023/09/09 02:11:32;;;;;;;13.07;11.63;;;16.00;99.90;;;;;;2049722;28;20227;-81
2023/09/09 02:12:34;;;;;;;12.50;11.40;;;16.00;99.90;;;;;;2056765;28;20854;-82
2023/09/09 02:13:34;;;;;;;14.18;12.77;;;16.00;99.90;;;;;;2072427;28;20236;-81
2023/09/09 02:14:35;;;;;;;14.40;13.03;;;16.00;99.90;;;;;;2070444;28;20626;-81
2023/09/09 02:15:36;;;;;;;14.87;13.47;;;15.90;99.90;;;;;;2056458;28;20307;-82
2023/09/09 02:16:36;;;;;;;13.47;12.17;;;16.00;99.90;;;;;;2048543;28;20239;-82
2023/09/09 02:17:37;;;;;;;14.73;13.30;;;16.00;99.90;;;;;;2046109;28;20709;-82
2023/09/09 02:18:39;;;;;;;13.70;12.33;;;16.00;99.90;;;;;;2056451;28;20227;-82
2023/09/09 02:19:40;;;;;;;14.30;12.77;;;16.00;99.90;;;;;;2057243;28;20227;-82
2023/09/09 02:20:41;;;;;;;12.90;11.70;;;16.00;99.90;;;;;;2056753;28;20539;-82
2023/09/09 02:21:41;;;;;;;13.27;11.90;;;16.00;99.90;;;;;;2063942;28;20277;-82
2023/09/09 02:22:42;;;;;;;13.13;11.83;;;16.00;99.90;;;;;;2056721;28;20300;-82
2023/09/09 02:23:43;;;;;;;13.80;12.53;;;16.00;99.90;;;;;;2048156;28;20305;-82
2023/09/09 02:24:44;;;;;;;12.70;11.60;;;16.00;99.90;;;;;;2066059;28;20237;-82
2023/09/09 02:25:44;;;;;;;13.77;12.37;;;16.00;99.90;;;;;;2065080;28;20222;-82
2023/09/09 02:26:45;;;;;;;13.37;12.07;;;16.00;99.90;;;;;;2065348;28;20226;-82
2023/09/09 02:27:46;;;;;;;13.00;11.80;;;16.00;99.90;;;;;;2072939;28;20221;-82
2023/09/09 02:28:47;;;;;;;14.07;12.57;;;16.00;99.90;;;;;;2055201;28;20265;-81
2023/09/09 02:29:48;;;;;;;13.93;12.63;;;16.00;99.90;;;;;;2062478;28;20222;-81
2023/09/09 02:30:49;;;;;;;14.33;12.70;;;16.00;99.90;;;;;;2056990;28;20472;-82
2023/09/09 02:31:50;;;;;;;14.17;12.77;;;16.00;99.90;;;;;;2057097;28;20770;-82
2023/09/09 02:32:50;;;;;;;14.00;12.67;;;16.00;99.90;;;;;;2063317;28;20250;-82
2023/09/09 02:33:51;;;;;;;14.47;13.17;;;16.00;99.90;;;;;;2069862;28;20221;-82
2023/09/09 02:34:52;;;;;;;13.93;12.37;;;16.00;99.90;;;;;;2069933;28;20229;-83
2023/09/09 02:35:52;;;;;;;13.57;12.27;;;16.00;99.90;;;;;;2056934;28;20234;-82
2023/09/09 02:37:16;;;;;;;12.40;11.23;;;16.00;99.90;;;;;;2055727;28;20317;-82
2023/09/09 02:38:17;;;;;;;15.30;12.43;;;16.00;99.90;;;;;;2057998;28;20245;-81
2023/09/09 02:39:18;;;;;;;13.37;12.07;;;15.90;99.90;;;;;;2057648;28;20429;-83
2023/09/09 02:40:19;;;;;;;14.43;13.07;;;15.90;99.90;;;;;;2067871;28;20206;-82
2023/09/09 02:41:19;;;;;;;13.70;12.33;;;15.90;99.90;;;;;;2059572;28;20278;-82
2023/09/09 02:42:23;;;;;;;14.27;12.90;;;15.90;99.90;;;;;;2048364;28;20188;-82
2023/09/09 02:43:24;;;;;;;12.97;11.63;;;15.90;99.90;;;;;;2057030;28;20230;-82
2023/09/09 02:44:24;;;;;;;13.37;12.17;;;15.90;99.90;;;;;;2061126;28;20538;-81
2023/09/09 02:45:25;;;;;;;13.67;12.37;;;15.90;99.90;;;;;;2062121;28;20229;-81
2023/09/09 02:46:26;;;;;;;13.70;12.27;;;15.90;99.90;;;;;;2055682;28;20299;-81
2023/09/09 02:47:26;;;;;;;14.37;12.90;;;15.80;99.90;;;;;;2063338;28;20341;-81
2023/09/09 02:48:27;;;;;;;14.00;12.70;;;15.80;99.90;;;;;;2064230;28;20269;-81
2023/09/09 02:49:28;;;;;;;14.27;12.87;;;15.80;99.90;;;;;;2064528;28;20329;-82
2023/09/09 02:50:28;;;;;;;13.87;12.40;;;15.80;99.90;;;;;;2063717;28;20230;-82
2023/09/09 02:51:29;;;;;;;13.40;12.20;;;15.70;99.90;;;;;;2069734;28;20222;-82
2023/09/09 02:52:30;;;;;;;14.20;12.90;;;15.80;99.90;;;;;;2062645;28;20229;-82
2023/09/09 02:53:31;;;;;;;13.63;12.33;;;15.80;99.90;;;;;;2062285;28;20289;-82
2023/09/09 02:54:31;;;;;;;15.17;13.77;;;15.80;99.90;;;;;;2056129;28;20298;-81
2023/09/09 02:55:32;;;;;;;14.17;12.77;;;15.70;99.90;;;;;;2050700;28;20676;-82
2023/09/09 02:56:33;;;;;;;15.73;14.23;;;15.70;99.90;;;;;;2064084;28;20333;-82
2023/09/09 02:57:33;;;;;;;14.30;12.90;;;15.70;99.90;;;;;;2062218;28;20257;-82
2023/09/09 02:58:34;;;;;;;15.20;13.70;;;15.70;99.90;;;;;;2051391;28;20230;-82
2023/09/09 02:59:37;;;;;;;15.43;13.93;;;15.80;99.90;;;;;;2072931;28;20656;-82
2023/09/09 03:00:37;;;;;;;15.23;13.73;;;15.80;99.90;;;;;;2071420;28;20237;-82
2023/09/09 03:01:38;;;;;;;14.70;13.33;;;15.80;99.90;;;;;;2062767;28;20498;-80
2023/09/09 03:02:42;;;;;;;14.00;12.60;;;15.80;99.90;;;;;;2045260;28;20295;-82
2023/09/09 03:03:42;;;;;;;15.53;14.03;;;15.80;99.90;;;;;;2064219;28;20230;-82
2023/09/09 03:04:43;;;;;;;16.53;14.80;;;15.80;99.90;;;;;;2071322;28;20479;-82
2023/09/09 03:05:44;;;;;;;14.60;13.20;;;15.80;99.90;;;;;;2064032;28;20711;-82
2023/09/09 03:06:45;;;;;;;15.23;13.83;;;15.80;99.90;;;;;;2055926;28;20684;-81
2023/09/09 03:07:48;;;;;;;14.52;13.20;;;15.80;99.90;;;;;;2055559;28;20607;-82
2023/09/09 03:08:48;;;;;;;15.20;13.65;;;15.80;99.90;;;;;;2056892;28;20317;-81
2023/09/09 03:09:49;;;;;;;15.97;14.47;;;15.80;99.90;;;;;;2063979;28;20777;-83
2023/09/09 03:10:53;;;;;;;15.87;14.40;;;15.80;99.90;;;;;;2054959;28;20258;-82
2023/09/09 03:11:55;;;;;;;14.90;13.43;;;15.80;99.90;;;;;;2057328;28;20234;-82
2023/09/09 03:12:59;;;;;;;14.23;12.82;;;15.80;99.90;;;;;;2062183;28;20222;-82
2023/09/09 03:14:00;;;;;;;15.85;14.05;;;15.80;99.90;;;;;;2064111;28;20305;-82
2023/09/09 03:15:05;;;;;;;15.23;13.83;;;15.80;99.90;;;;;;2070663;28;20243;-82
2023/09/09 03:16:06;;;;;;;14.70;13.32;;;15.80;99.90;;;;;;2069252;28;20249;-82
2023/09/09 03:17:06;;;;;;;16.23;14.67;;;15.80;99.90;;;;;;2061608;28;20244;-83
2023/09/09 03:18:07;;;;;;;15.63;14.13;;;15.80;99.90;;;;;;2070414;28;20253;-80
2023/09/09 03:19:08;;;;;;;16.23;14.63;;;15.80;99.90;;;;;;2063490;28;20261;-81
2023/09/09 03:20:10;;;;;;;15.97;14.00;;;15.80;99.90;;;;;;2072517;28;20194;-80
2023/09/09 03:21:10;;;;;;;15.23;13.77;;;15.80;99.90;;;;;;2075637;28;20193;-82
2023/09/09 03:22:11;;;;;;;16.00;14.37;;;15.80;99.90;;;;;;2071119;28;20540;-80
2023/09/09 03:23:12;;;;;;;15.20;13.70;;;15.70;99.90;;;;;;2065819;28;20190;-82
2023/09/09 03:24:12;;;;;;;14.87;13.43;;;15.80;99.90;;;;;;2049523;28;20219;-82
2023/09/09 03:25:13;;;;;;;15.00;13.50;;;15.70;99.90;;;;;;2063305;28;20281;-82
2023/09/09 03:26:18;;;;;;;16.23;14.57;;;15.80;99.90;;;;;;2079728;28;20269;-82
2023/09/09 03:27:21;;;;;;;16.15;14.63;;;15.80;99.90;;;;;;2065912;28;20194;-82
2023/09/09 03:28:21;;;;;;;14.67;13.37;;;15.70;99.90;;;;;;2059430;28;20581;-82
2023/09/09 03:29:22;;;;;;;14.53;13.23;;;15.80;99.90;;;;;;2058288;28;20511;-82
2023/09/09 03:30:23;;;;;;;13.77;12.17;;;15.70;99.90;;;;;;2049030;28;20318;-82
2023/09/09 03:31:24;;;;;;;15.17;13.77;;;15.70;99.90;;;;;;2065266;28;20230;-81
2023/09/09 03:32:25;;;;;;;14.80;13.50;;;15.70;99.90;;;;;;2068756;28;20503;-82
2023/09/09 03:33:27;;;;;;;15.50;14.00;;;15.80;99.90;;;;;;2062830;28;21000;-82
2023/09/09 03:34:28;;;;;;;15.57;14.15;;;15.80;99.90;;;;;;2060682;28;20834;-81
2023/09/09 03:35:28;;;;;;;17.13;15.43;;;15.70;99.90;;;;;;2047151;28;20271;-82
2023/09/09 03:36:29;;;;;;;15.23;13.60;;;15.70;99.90;;;;;;2059846;28;20282;-82
2023/09/09 03:37:30;;;;;;;16.63;15.03;;;15.70;99.90;;;;;;2067843;28;20230;-82
2023/09/09 03:38:31;;;;;;;14.47;13.13;;;15.70;99.90;;;;;;2058082;28;20305;-82
2023/09/09 03:39:31;;;;;;;15.73;14.23;;;15.70;99.90;;;;;;2056095;28;20646;-82
2023/09/09 03:40:32;;;;;;;15.27;13.67;;;15.70;99.90;;;;;;2059555;28;20227;-81
2023/09/09 03:41:33;;;;;;;16.47;14.97;;;15.70;99.90;;;;;;2072341;28;20320;-82
2023/09/09 03:42:33;;;;;;;16.23;14.73;;;15.70;99.90;;;;;;2064448;28;20230;-82
2023/09/09 03:43:37;;;;;;;16.23;14.50;;;15.70;99.90;;;;;;2070602;28;20225;-82
2023/09/09 03:44:38;;;;;;;15.37;13.97;;;15.70;99.90;;;;;;2061011;28;20263;-82
2023/09/09 03:45:38;;;;;;;16.60;15.00;;;15.70;99.90;;;;;;2048133;28;20469;-81
2023/09/09 03:46:39;;;;;;;15.07;13.67;;;15.70;99.90;;;;;;2054145;28;20699;-82
2023/09/09 03:47:40;;;;;;;15.40;13.90;;;15.70;99.90;;;;;;2070409;28;20229;-82
2023/09/09 03:48:41;;;;;;;14.70;13.30;;;15.70;99.90;;;;;;2067675;28;20256;-82
2023/09/09 03:49:41;;;;;;;15.20;13.80;;;15.70;99.90;;;;;;2056211;28;20288;-82
2023/09/09 03:50:42;;;;;;;14.70;13.30;;;15.60;99.90;;;;;;2058517;28;20251;-82
2023/09/09 03:51:44;;;;;;;15.93;14.33;;;15.70;99.90;;;;;;2063016;28;20337;-83
2023/09/09 03:52:45;;;;;;;17.33;15.63;;;15.70;99.90;;;;;;2046385;28;20405;-82
2023/09/09 03:53:46;;;;;;;16.00;14.30;;;15.70;99.90;;;;;;2052281;28;20319;-82
2023/09/09 03:54:47;;;;;;;17.02;15.32;;;15.70;99.90;;;;;;2057014;28;20227;-83
2023/09/09 03:55:47;;;;;;;17.50;14.63;;;15.70;99.90;;;;;;2055929;28;20242;-82
2023/09/09 03:56:49;;;;;;;16.47;14.87;;;15.70;99.90;;;;;;2064099;28;20687;-83
2023/09/09 03:57:51;;;;;;;16.75;15.07;;;15.60;99.90;;;;;;2064542;28;20232;-82
2023/09/09 03:58:52;;;;;;;16.55;15.05;;;15.70;99.90;;;;;;2055660;28;20312;-81
2023/09/09 03:59:53;;;;;;;16.70;15.07;;;15.70;99.90;;;;;;2064825;28;20738;-82
2023/09/09 04:01:08;;;;;;;17.40;15.60;;;15.70;99.90;;;;;;2054156;28;20254;-82
2023/09/09 04:02:09;;;;;;;16.40;14.80;;;15.70;99.90;;;;;;2063558;28;20235;-81
2023/09/09 04:03:09;;;;;;;17.87;15.10;;;15.70;99.90;;;;;;2062956;28;20425;-81
2023/09/09 04:04:10;;;;;;;15.07;13.57;;;15.70;99.90;;;;;;2055259;28;20751;-81
2023/09/09 04:05:11;;;;;;;17.77;16.07;;;15.70;99.90;;;;;;2046021;28;20188;-81
2023/09/09 04:06:13;;;;;;;15.40;13.90;;;15.70;99.90;;;;;;2046999;28;20226;-81
2023/09/09 04:07:13;;;;;;;16.35;14.77;;;15.70;99.90;;;;;;2055515;28;20190;-81
2023/09/09 04:08:14;;;;;;;17.03;15.33;;;15.70;99.90;;;;;;2061906;28;20209;-80
2023/09/09 04:09:22;;;;;;;15.87;14.37;;;15.70;99.90;;;;;;2070904;28;20181;-82
2023/09/09 04:10:22;;;;;;;17.83;16.23;;;15.70;99.90;;;;;;2065144;28;21786;-81
2023/09/09 04:11:24;;;;;;;18.73;16.83;;;15.60;99.90;;;;;;2060933;28;20298;-82
2023/09/09 04:12:24;;;;;;;17.20;15.50;;;15.60;99.90;;;;;;2057440;28;20266;-82
2023/09/09 04:13:25;;;;;;;17.67;15.57;;;15.60;99.90;;;;;;2062733;28;20226;-81
2023/09/09 04:14:26;;;;;;;17.07;15.47;;;15.60;99.90;;;;;;2063220;28;20936;-82
2023/09/09 04:15:27;;;;;;;16.73;15.13;;;15.60;99.90;;;;;;2059145;28;20257;-81
2023/09/09 04:16:28;;;;;;;16.43;14.93;;;15.60;99.90;;;;;;2067989;28;20226;-82
2023/09/09 04:17:28;;;;;;;18.13;16.33;;;15.50;99.90;;;;;;2070159;28;20475;-81
2023/09/09 04:18:29;;;;;;;18.00;16.37;;;15.60;99.90;;;;;;2051354;28;20226;-82
2023/09/09 04:19:30;;;;;;;16.40;14.80;;;15.60;99.90;;;;;;2045199;28;20292;-83
2023/09/09 04:20:30;;;;;;;16.93;15.23;;;15.60;99.90;;;;;;2064023;28;21959;-82
2023/09/09 04:21:31;;;;;;;16.50;14.90;;;15.60;99.90;;;;;;2069366;28;20253;-83
2023/09/09 04:22:32;;;;;;;17.23;15.57;;;15.60;99.90;;;;;;2055120;28;20218;-82
2023/09/09 04:23:33;;;;;;;15.83;14.40;;;15.70;99.90;;;;;;2055439;28;20230;-81
2023/09/09 04:24:33;;;;;;;16.43;14.83;;;15.60;99.90;;;;;;2063544;28;20674;-83
2023/09/09 04:25:34;;;;;;;16.03;14.47;;;15.60;99.90;;;;;;2064553;28;20237;-82
2023/09/09 04:26:35;;;;;;;16.87;15.27;;;15.60;99.90;;;;;;2054879;28;20255;-83
2023/09/09 04:27:35;;;;;;;15.43;13.90;;;15.60;99.90;;;;;;2055758;28;20222;-83
2023/09/09 04:28:36;;;;;;;16.67;15.17;;;15.60;99.90;;;;;;2063492;28;20316;-83
2023/09/09 04:29:37;;;;;;;16.17;14.63;;;15.60;99.90;;;;;;2064199;28;20230;-82
2023/09/09 04:30:39;;;;;;;17.43;15.70;;;15.60;99.90;;;;;;2055713;28;20235;-82
2023/09/09 04:31:40;;;;;;;16.73;15.07;;;15.60;99.90;;;;;;2047949;28;20282;-82
2023/09/09 04:32:40;;;;;;;17.53;15.83;;;15.60;99.90;;;;;;2055814;28;20320;-82
2023/09/09 04:33:41;;;;;;;15.73;14.23;;;15.60;99.90;;;;;;2060857;28;20554;-82
2023/09/09 04:34:42;;;;;;;16.17;14.47;;;15.60;99.90;;;;;;2063189;28;20258;-81
2023/09/09 04:35:44;;;;;;;14.63;13.27;;;15.60;99.90;;;;;;2062984;28;20239;-82
2023/09/09 04:36:45;;;;;;;17.65;15.88;;;15.60;99.90;;;;;;2062392;28;20238;-82
2023/09/09 04:37:46;;;;;;;16.33;14.63;;;15.50;99.90;;;;;;2056220;28;20277;-82
2023/09/09 04:38:47;;;;;;;16.83;15.17;;;15.50;99.90;;;;;;2056425;28;20229;-82
2023/09/09 04:39:48;;;;;;;19.37;17.47;;;15.50;99.90;;;;;;2063675;28;20499;-82
2023/09/09 04:40:48;;;;;;;18.37;16.57;;;15.50;99.90;;;;;;2055790;28;20754;-82
2023/09/09 04:41:49;;;;;;;18.47;15.73;;;15.50;99.90;;;;;;2054842;28;20215;-82
2023/09/09 04:42:50;;;;;;;17.40;15.70;;;15.50;99.90;;;;;;2062863;28;20654;-82
2023/09/09 04:43:50;;;;;;;16.13;14.53;;;15.50;99.90;;;;;;2066457;28;20218;-82
2023/09/09 04:44:51;;;;;;;16.40;14.80;;;15.60;99.90;;;;;;2072414;28;20694;-83
2023/09/09 04:45:52;;;;;;;17.80;16.10;;;15.60;99.90;;;;;;2068244;28;20219;-83
2023/09/09 04:46:52;;;;;;;16.27;14.67;;;15.60;99.90;;;;;;2057167;28;20223;-83
2023/09/09 04:47:53;;;;;;;16.83;15.23;;;15.60;99.90;;;;;;2048363;28;20677;-82
2023/09/09 04:48:54;;;;;;;17.07;15.33;;;15.60;99.90;;;;;;2056013;28;20222;-82
2023/09/09 04:49:58;;;;;;;17.53;15.83;;;15.50;99.90;;;;;;2063843;28;20219;-83
2023/09/09 04:50:59;;;;;;;16.80;15.30;;;15.50;99.90;;;;;;2072296;28;20292;-82
2023/09/09 04:52:00;;;;;;;16.73;15.10;;;15.60;99.90;;;;;;2078088;28;20892;-82
2023/09/09 04:53:02;;;;;;;15.80;14.30;;;15.60;99.90;;;;;;2079585;28;20212;-82
2023/09/09 04:54:03;;;;;;;16.43;14.87;;;15.50;99.90;;;;;;2070647;28;20284;-83
2023/09/09 04:55:04;;;;;;;18.07;16.23;;;15.60;99.90;;;;;;2063098;28;20441;-83
2023/09/09 04:56:05;;;;;;;17.70;15.93;;;15.60;99.90;;;;;;2064164;28;20190;-83
2023/09/09 04:57:05;;;;;;;16.90;15.20;;;15.60;99.90;;;;;;2073073;28;20279;-82
2023/09/09 04:58:10;;;;;;;16.93;15.20;;;15.60;99.90;;;;;;2080095;28;20185;-82
2023/09/09 04:59:10;;;;;;;17.77;16.17;;;15.60;99.90;;;;;;2077721;28;20176;-82
2023/09/09 05:00:12;;;;;;;17.00;15.30;;;15.60;99.90;;;;;;2063817;28;20540;-82
2023/09/09 05:01:12;;;;;;;18.33;16.35;;;15.60;99.90;;;;;;2063606;28;20583;-82
2023/09/09 05:02:13;;;;;;;19.47;15.17;;;15.60;99.90;;;;;;2063787;28;20189;-82
2023/09/09 05:03:14;;;;;;;16.90;15.37;;;15.60;99.90;;;;;;2072537;28;20182;-82
2023/09/09 05:04:14;;;;;;;16.00;14.40;;;15.60;99.90;;;;;;2077356;28;20239;-82
2023/09/09 05:05:15;;;;;;;17.60;15.37;;;15.60;99.90;;;;;;2070973;28;20185;-82
2023/09/09 05:06:16;;;;;;;17.43;15.73;;;15.60;99.90;;;;;;2061937;28;20982;-82
2023/09/09 05:07:17;;;;;;;17.40;15.60;;;15.60;99.90;;;;;;2063592;28;20182;-83
2023/09/09 05:08:17;;;;;;;16.27;14.70;;;15.60;99.90;;;;;;2055587;28;20183;-82
2023/09/09 05:09:18;;;;;;;16.07;14.57;;;15.60;99.90;;;;;;2063968;28;20191;-82
2023/09/09 05:10:19;;;;;;;15.53;14.03;;;15.60;99.90;;;;;;2055589;28;20187;-82
2023/09/09 05:11:20;;;;;;;15.15;13.75;;;15.60;99.90;;;;;;2054703;28;20190;-81